createdAt,value
2022-10-13T00:01:32.330Z,30.03
2022-10-13T00:04:01.258Z,30.12
2022-10-13T00:06:30.348Z,30.21
2022-10-13T00:09:01.257Z,30.35
2022-10-13T00:11:32.353Z,30.35
2022-10-13T00:14:06.035Z,30.46
2022-10-13T00:16:35.480Z,30.43
2022-10-13T00:19:04.802Z,30.66
2022-10-13T00:21:33.784Z,30.60
2022-10-13T00:24:02.809Z,30.90
2022-10-13T00:26:31.874Z,30.92
2022-10-13T00:29:01.058Z,30.89
2022-10-13T00:31:33.385Z,31.05
2022-10-13T00:34:03.493Z,31.42
2022-10-13T00:36:33.648Z,31.56
2022-10-13T00:39:02.769Z,31.57
2022-10-13T00:41:31.767Z,31.66
2022-10-13T00:44:07.311Z,31.76
2022-10-13T00:46:38.588Z,31.90
2022-10-13T00:49:14.183Z,32.03
2022-10-13T00:51:50.358Z,32.24
2022-10-13T00:54:26.578Z,32.50
2022-10-13T00:56:56.863Z,32.80
2022-10-13T00:59:30.260Z,32.79
2022-10-13T01:02:01.549Z,32.88
2022-10-13T01:04:46.682Z,33.09
2022-10-13T01:07:20.128Z,33.37
2022-10-13T01:09:49.316Z,33.58
2022-10-13T01:12:50.684Z,33.66
2022-10-13T01:16:04.629Z,34.01
2022-10-13T01:18:45.136Z,35.04
2022-10-13T01:21:49.446Z,35.61
2022-10-13T01:24:51.169Z,35.91
2022-10-13T01:27:56.840Z,36.02
2022-10-13T01:30:26.158Z,35.97
2022-10-13T01:33:52.132Z,36.15
2022-10-13T01:36:40.086Z,36.57
2022-10-13T01:39:24.220Z,36.83
2022-10-13T01:42:03.099Z,36.97
2022-10-13T01:44:43.068Z,37.15
2022-10-13T01:47:17.099Z,37.37
2022-10-13T01:49:49.123Z,37.79
2022-10-13T01:52:24.084Z,38.06
2022-10-13T01:54:55.895Z,38.54
2022-10-13T01:57:45.485Z,39.10
2022-10-13T02:00:19.574Z,39.46
2022-10-13T02:03:21.126Z,39.87
2022-10-13T02:06:19.559Z,40.02
2022-10-13T02:08:59.340Z,40.31
2022-10-13T02:11:30.475Z,40.88
2022-10-13T02:14:09.345Z,40.95
2022-10-13T02:16:44.066Z,41.17
2022-10-13T02:19:19.077Z,41.81
2022-10-13T02:21:49.668Z,42.01
2022-10-13T02:24:18.740Z,42.36
2022-10-13T02:26:49.146Z,42.73
2022-10-13T02:29:20.091Z,42.93
2022-10-13T02:31:49.739Z,43.13
2022-10-13T02:34:19.072Z,43.57
2022-10-13T02:36:49.064Z,43.85
2022-10-13T02:39:18.938Z,43.76
2022-10-13T02:41:48.130Z,44.15
2022-10-13T02:44:17.376Z,44.65
2022-10-13T02:46:47.347Z,44.97
2022-10-13T02:49:16.452Z,45.22
2022-10-13T02:51:45.819Z,45.45
2022-10-13T02:54:14.885Z,45.55
2022-10-13T02:56:44.327Z,45.47
2022-10-13T02:59:13.328Z,45.67
2022-10-13T03:01:43.242Z,45.96
2022-10-13T03:04:13.006Z,46.03
2022-10-13T03:06:42.085Z,46.30
2022-10-13T03:09:11.561Z,46.78
2022-10-13T03:11:40.543Z,47.03
2022-10-13T03:14:10.269Z,47.28
2022-10-13T03:16:39.280Z,47.20
2022-10-13T03:19:08.276Z,47.31
2022-10-13T03:21:38.294Z,47.39
2022-10-13T03:24:07.840Z,47.89
2022-10-13T03:26:37.204Z,48.10
2022-10-13T03:29:06.236Z,48.74
2022-10-13T03:31:35.526Z,49.33
2022-10-13T03:34:04.901Z,49.26
2022-10-13T03:36:34.098Z,49.61
2022-10-13T03:39:03.066Z,49.94
2022-10-13T03:41:32.200Z,50.27
2022-10-13T03:44:01.422Z,50.60
2022-10-13T03:46:32.782Z,50.80
2022-10-13T03:49:02.030Z,50.79
2022-10-13T03:51:30.899Z,51.01
2022-10-13T03:54:00.128Z,51.24
2022-10-13T03:56:30.119Z,51.47
2022-10-13T03:59:01.963Z,51.52
2022-10-13T04:01:33.073Z,51.72
2022-10-13T04:04:03.737Z,51.99
2022-10-13T04:06:33.540Z,52.36
2022-10-13T04:09:02.473Z,52.42
2022-10-13T04:11:31.628Z,52.74
2022-10-13T04:14:01.014Z,53.00
2022-10-13T04:16:32.723Z,53.08
2022-10-13T04:19:08.955Z,53.15
2022-10-13T04:21:37.920Z,53.30
2022-10-13T04:24:07.447Z,53.35
2022-10-13T04:26:37.986Z,53.49
2022-10-13T04:29:09.010Z,53.71
2022-10-13T04:31:39.371Z,53.86
2022-10-13T04:34:08.871Z,53.93
2022-10-13T04:36:37.985Z,53.92
2022-10-13T04:39:08.128Z,53.94
2022-10-13T04:41:37.330Z,54.13
2022-10-13T04:44:06.592Z,54.23
2022-10-13T04:46:35.806Z,54.47
2022-10-13T04:49:05.889Z,54.94
2022-10-13T04:51:35.024Z,54.96
2022-10-13T04:54:06.719Z,54.98
2022-10-13T04:56:38.894Z,55.01
2022-10-13T04:59:08.131Z,55.14
2022-10-13T05:01:37.285Z,55.32
2022-10-13T05:04:10.254Z,55.34
2022-10-13T05:07:05.391Z,55.35
2022-10-13T05:09:32.000Z,55.60
2022-10-13T05:12:00.903Z,55.71
2022-10-13T05:14:29.952Z,56.02
2022-10-13T05:16:59.043Z,56.29
2022-10-13T05:19:28.094Z,56.29
2022-10-13T05:21:57.279Z,56.34
2022-10-13T05:24:37.408Z,56.48
2022-10-13T05:27:13.908Z,56.54
2022-10-13T05:29:43.269Z,56.83
2022-10-13T05:32:12.168Z,56.80
2022-10-13T05:34:41.319Z,56.75
2022-10-13T05:37:10.335Z,56.92
2022-10-13T05:39:39.335Z,57.01
2022-10-13T05:42:08.464Z,57.14
2022-10-13T05:44:38.553Z,57.31
2022-10-13T05:47:07.868Z,57.41
2022-10-13T05:49:43.308Z,57.42
2022-10-13T05:52:14.646Z,57.49
2022-10-13T05:54:51.306Z,57.63
2022-10-13T05:57:31.328Z,57.77
2022-10-13T06:00:08.124Z,57.95
2022-10-13T06:03:05.590Z,57.92
2022-10-13T06:05:35.144Z,58.11
2022-10-13T06:08:04.387Z,58.45
2022-10-13T06:10:33.486Z,58.72
2022-10-13T06:13:02.576Z,58.95
2022-10-13T06:15:31.660Z,58.98
2022-10-13T06:18:01.630Z,58.99
2022-10-13T06:20:30.576Z,59.12
2022-10-13T06:23:00.289Z,59.42
2022-10-13T06:25:30.451Z,59.69
2022-10-13T06:28:01.904Z,59.69
2022-10-13T06:30:31.172Z,59.62
2022-10-13T06:33:00.352Z,59.71
2022-10-13T06:35:29.397Z,59.70
2022-10-13T06:37:59.339Z,59.81
2022-10-13T06:40:28.231Z,59.92
2022-10-13T06:42:57.288Z,60.07
2022-10-13T06:45:26.729Z,60.18
2022-10-13T06:47:57.216Z,60.48
2022-10-13T06:50:26.674Z,60.63
2022-10-13T06:52:58.187Z,60.61
2022-10-13T06:55:27.309Z,60.93
2022-10-13T06:57:56.616Z,60.98
2022-10-13T07:00:26.155Z,61.09
2022-10-13T07:02:55.073Z,61.32
2022-10-13T07:05:24.185Z,61.59
2022-10-13T07:07:56.682Z,61.58
2022-10-13T07:10:28.628Z,61.67
2022-10-13T07:12:58.467Z,61.57
2022-10-13T07:15:27.525Z,61.90
2022-10-13T07:17:56.651Z,61.96
2022-10-13T07:20:28.987Z,61.97
2022-10-13T07:22:57.983Z,62.16
2022-10-13T07:25:27.047Z,62.24
2022-10-13T07:27:56.309Z,62.42
2022-10-13T07:30:25.360Z,62.49
2022-10-13T07:32:54.817Z,62.61
2022-10-13T07:35:30.486Z,62.80
2022-10-13T07:38:00.185Z,62.87
2022-10-13T07:40:29.377Z,62.77
2022-10-13T07:42:59.425Z,62.86
2022-10-13T07:45:28.694Z,63.04
2022-10-13T07:47:58.598Z,63.09
2022-10-13T07:50:27.691Z,63.20
2022-10-13T07:52:56.807Z,63.34
2022-10-13T07:55:25.996Z,63.37
2022-10-13T07:57:54.978Z,63.48
2022-10-13T08:00:23.932Z,63.60
2022-10-13T08:02:53.020Z,63.55
2022-10-13T08:05:22.500Z,63.60
2022-10-13T08:07:54.691Z,63.60
2022-10-13T08:10:27.499Z,63.82
2022-10-13T08:12:57.471Z,63.90
2022-10-13T08:15:26.429Z,64.02
2022-10-13T08:17:55.651Z,64.09
2022-10-13T08:20:28.820Z,64.03
2022-10-13T08:23:05.277Z,64.15
2022-10-13T08:25:43.418Z,64.21
2022-10-13T08:28:27.220Z,64.49
2022-10-13T08:31:00.504Z,64.62
2022-10-13T08:33:29.819Z,64.62
2022-10-13T08:35:58.888Z,64.87
2022-10-13T08:38:28.285Z,64.89
2022-10-13T08:40:57.249Z,64.85
2022-10-13T08:43:28.322Z,65.01
2022-10-13T08:46:02.519Z,64.99
2022-10-13T08:48:44.101Z,65.14
2022-10-13T08:51:17.613Z,65.43
2022-10-13T08:53:48.737Z,65.40
2022-10-13T08:56:36.140Z,65.48
2022-10-13T08:59:07.700Z,65.52
2022-10-13T09:01:38.866Z,65.75
2022-10-13T09:04:37.157Z,65.80
2022-10-13T09:07:32.951Z,66.08
2022-10-13T09:10:02.111Z,66.29
2022-10-13T09:12:32.516Z,66.35
2022-10-13T09:15:13.597Z,66.48
2022-10-13T09:17:43.614Z,66.48
2022-10-13T09:20:29.014Z,66.34
2022-10-13T09:23:18.024Z,66.44
2022-10-13T09:25:53.037Z,66.46
2022-10-13T09:28:31.625Z,66.49
2022-10-13T09:31:18.689Z,66.67
2022-10-13T09:33:58.460Z,66.95
2022-10-13T09:36:28.667Z,67.11
2022-10-13T09:39:16.688Z,67.09
2022-10-13T09:41:47.051Z,67.16
2022-10-13T09:44:29.362Z,67.23
2022-10-13T09:47:05.303Z,67.31
2022-10-13T09:49:46.566Z,67.39
2022-10-13T09:52:19.956Z,67.58
2022-10-13T09:54:57.533Z,67.64
2022-10-13T09:57:45.554Z,67.71
2022-10-13T10:00:16.767Z,67.84
2022-10-13T10:03:00.303Z,67.94
2022-10-13T10:05:46.417Z,67.80
2022-10-13T10:08:33.530Z,67.78
2022-10-13T10:11:16.975Z,67.82
2022-10-13T10:13:46.589Z,67.84
2022-10-13T10:16:45.963Z,68.02
2022-10-13T10:19:26.492Z,68.47
2022-10-13T10:22:29.912Z,68.57
2022-10-13T10:25:14.475Z,68.58
2022-10-13T10:28:16.317Z,68.55
2022-10-13T10:31:43.598Z,68.65
2022-10-13T10:34:45.430Z,68.79
2022-10-13T10:37:39.869Z,68.98
2022-10-13T10:40:52.031Z,69.07
2022-10-13T10:43:48.661Z,69.22
2022-10-13T10:46:24.228Z,69.22
2022-10-13T10:49:35.759Z,69.19
2022-10-13T10:52:31.410Z,69.06
2022-10-13T10:55:47.830Z,68.93
2022-10-13T10:58:33.336Z,68.84
2022-10-13T11:01:26.181Z,68.82
2022-10-13T11:04:36.844Z,68.69
2022-10-13T11:07:11.285Z,68.64
2022-10-13T11:10:02.217Z,68.51
2022-10-13T11:12:57.481Z,68.49
2022-10-13T11:15:42.282Z,68.48
2022-10-13T11:19:00.333Z,68.47
2022-10-13T11:22:00.378Z,68.52
2022-10-13T11:24:40.522Z,68.59
2022-10-13T11:27:18.532Z,68.65
2022-10-13T11:29:47.897Z,68.69
2022-10-13T11:32:37.289Z,68.83
2022-10-13T11:35:11.737Z,68.68
2022-10-13T11:38:07.647Z,68.73
2022-10-13T11:41:19.460Z,68.84
2022-10-13T11:44:23.076Z,68.91
2022-10-13T11:47:02.212Z,68.79
2022-10-13T11:49:57.133Z,68.74
2022-10-13T11:52:48.162Z,68.69
2022-10-13T11:55:28.957Z,68.53
2022-10-13T11:58:27.941Z,68.49
2022-10-13T12:01:13.345Z,68.47
2022-10-13T12:03:46.465Z,68.38
2022-10-13T12:06:37.992Z,68.41
2022-10-13T12:09:20.205Z,68.47
2022-10-13T12:12:05.506Z,68.59
2022-10-13T12:14:45.352Z,68.60
2022-10-13T12:17:29.700Z,68.62
2022-10-13T12:20:19.767Z,68.82
2022-10-13T12:22:54.112Z,68.97
2022-10-13T12:25:34.774Z,69.07
2022-10-13T12:28:04.605Z,68.99
2022-10-13T12:30:38.011Z,69.00
2022-10-13T12:33:28.110Z,69.00
2022-10-13T12:35:58.079Z,68.90
2022-10-13T12:38:27.062Z,68.96
2022-10-13T12:40:56.334Z,68.92
2022-10-13T12:43:27.774Z,68.98
2022-10-13T12:45:56.973Z,69.02
2022-10-13T12:48:39.492Z,69.01
2022-10-13T12:51:19.392Z,69.11
2022-10-13T12:53:50.181Z,69.35
2022-10-13T12:56:34.619Z,69.42
2022-10-13T12:59:04.979Z,69.50
2022-10-13T13:01:37.462Z,69.50
2022-10-13T13:04:24.876Z,69.54
2022-10-13T13:06:58.693Z,69.54
2022-10-13T13:09:34.325Z,69.56
2022-10-13T13:12:31.217Z,69.82
2022-10-13T13:15:18.750Z,69.67
2022-10-13T13:18:03.556Z,69.50
2022-10-13T13:20:36.120Z,69.59
2022-10-13T13:23:05.463Z,69.68
2022-10-13T13:25:34.639Z,69.77
2022-10-13T13:28:11.469Z,69.83
2022-10-13T13:30:42.119Z,69.76
2022-10-13T13:35:45.261Z,69.84
2022-10-13T13:38:14.398Z,70.00
2022-10-13T13:40:43.493Z,70.16
2022-10-13T13:43:12.538Z,70.24
2022-10-13T13:45:41.907Z,70.30
2022-10-13T13:48:15.206Z,70.26
2022-10-13T13:50:47.715Z,70.23
2022-10-13T13:53:16.595Z,70.29
2022-10-13T13:55:48.290Z,70.38
2022-10-13T13:58:17.360Z,70.31
2022-10-13T14:00:46.541Z,70.07
2022-10-13T14:03:19.226Z,69.97
2022-10-13T14:05:49.321Z,69.90
2022-10-13T14:08:18.442Z,69.87
2022-10-13T14:10:47.528Z,69.80
2022-10-13T14:13:16.560Z,69.89
2022-10-13T14:15:45.864Z,69.90
2022-10-13T14:18:15.002Z,70.03
2022-10-13T14:20:44.843Z,70.10
2022-10-13T14:23:14.179Z,70.19
2022-10-13T14:25:43.080Z,70.22
2022-10-13T14:28:15.877Z,70.29
2022-10-13T14:30:47.945Z,70.32
2022-10-13T14:33:20.492Z,70.29
2022-10-13T14:35:52.575Z,70.40
2022-10-13T14:38:21.464Z,70.27
2022-10-13T14:40:50.874Z,70.19
2022-10-13T14:43:19.825Z,70.13
2022-10-13T14:45:48.776Z,69.96
2022-10-13T14:48:22.614Z,69.82
2022-10-13T14:50:53.936Z,69.64
2022-10-13T14:53:23.022Z,69.61
2022-10-13T14:55:52.230Z,69.58
2022-10-13T14:58:21.762Z,69.51
2022-10-13T15:00:51.149Z,69.50
2022-10-13T15:03:20.677Z,69.64
2022-10-13T15:05:49.597Z,69.75
2022-10-13T15:08:18.569Z,69.83
2022-10-13T15:10:47.541Z,69.75
2022-10-13T15:13:16.902Z,69.79
2022-10-13T15:15:50.116Z,69.78
2022-10-13T15:18:19.087Z,69.74
2022-10-13T15:20:54.050Z,69.75
2022-10-13T15:23:23.325Z,69.70
2022-10-13T15:25:58.344Z,69.54
2022-10-13T15:28:31.836Z,69.55
2022-10-13T15:31:01.081Z,69.38
2022-10-13T15:33:30.191Z,69.19
2022-10-13T15:35:59.678Z,69.16
2022-10-13T15:38:29.253Z,69.01
2022-10-13T15:41:07.913Z,68.92
2022-10-13T15:43:37.017Z,68.93
2022-10-13T15:46:13.574Z,68.86
2022-10-13T15:48:42.858Z,68.84
2022-10-13T15:51:19.243Z,68.74
2022-10-13T15:53:50.321Z,68.90
2022-10-13T15:56:20.101Z,68.96
2022-10-13T15:58:49.076Z,68.92
2022-10-13T16:01:18.368Z,68.73
2022-10-13T16:03:57.265Z,68.55
2022-10-13T16:06:28.057Z,68.43
2022-10-13T16:08:57.250Z,68.25
2022-10-13T16:11:27.368Z,68.29
2022-10-13T16:13:56.702Z,67.88
2022-10-13T16:16:26.150Z,67.69
2022-10-13T16:18:55.973Z,67.42
2022-10-13T16:21:27.476Z,67.20
2022-10-13T16:23:56.686Z,67.01
2022-10-13T16:26:26.599Z,66.90
2022-10-13T16:28:59.349Z,66.48
2022-10-13T16:31:28.719Z,66.45
2022-10-13T16:33:57.728Z,66.33
2022-10-13T16:36:27.117Z,65.97
2022-10-13T16:38:56.896Z,65.52
2022-10-13T16:41:26.906Z,65.23
2022-10-13T16:43:56.808Z,64.59
2022-10-13T16:46:25.691Z,63.99
2022-10-13T16:48:55.319Z,63.61
2022-10-13T16:51:30.312Z,63.26
2022-10-13T16:54:04.189Z,63.04
2022-10-13T16:56:34.297Z,62.64
2022-10-13T16:59:06.802Z,62.43
2022-10-13T17:01:37.543Z,62.04
2022-10-13T17:04:07.435Z,61.58
2022-10-13T17:06:39.869Z,61.19
2022-10-13T17:09:09.657Z,60.77
2022-10-13T17:11:39.099Z,60.46
2022-10-13T17:14:08.295Z,60.25
2022-10-13T17:16:38.126Z,60.22
2022-10-13T17:19:07.824Z,59.74
2022-10-13T17:21:36.962Z,59.76
2022-10-13T17:24:06.168Z,59.30
2022-10-13T17:26:35.237Z,59.22
2022-10-13T17:29:04.431Z,58.48
2022-10-13T17:31:33.405Z,58.22
2022-10-13T17:34:03.037Z,57.47
2022-10-13T17:36:33.538Z,57.47
2022-10-13T17:39:11.398Z,57.40
2022-10-13T17:41:42.998Z,57.17
2022-10-13T17:44:12.978Z,56.20
2022-10-13T17:46:42.124Z,55.71
2022-10-13T17:49:14.303Z,55.32
2022-10-13T17:51:46.069Z,55.22
2022-10-13T17:54:16.703Z,55.02
2022-10-13T17:56:49.003Z,54.75
2022-10-13T17:59:19.461Z,54.21
2022-10-13T18:01:48.966Z,54.37
2022-10-13T18:04:20.688Z,54.12
2022-10-13T18:06:49.747Z,53.39
2022-10-13T18:09:22.229Z,53.34
2022-10-13T18:11:53.471Z,53.02
2022-10-13T18:14:24.521Z,52.79
2022-10-13T18:16:54.972Z,52.50
2022-10-13T18:19:24.422Z,52.19
2022-10-13T18:21:54.071Z,52.06
2022-10-13T18:24:23.181Z,51.76
2022-10-13T18:26:52.423Z,51.00
2022-10-13T18:29:21.638Z,49.79
2022-10-13T18:31:50.801Z,49.81
2022-10-13T18:34:20.846Z,49.39
2022-10-13T18:36:56.056Z,48.63
2022-10-13T18:39:28.582Z,47.85
2022-10-13T18:41:59.169Z,47.56
2022-10-13T18:44:28.187Z,46.74
2022-10-13T18:46:57.607Z,46.22
2022-10-13T18:49:31.815Z,46.05
2022-10-13T18:52:03.216Z,45.37
2022-10-13T18:54:33.476Z,44.73
2022-10-13T18:57:02.567Z,44.72
2022-10-13T18:59:31.914Z,44.82
2022-10-13T19:02:00.920Z,44.05
2022-10-13T19:04:29.919Z,43.73
2022-10-13T19:06:58.793Z,43.31
2022-10-13T19:09:27.936Z,43.29
2022-10-13T19:11:59.810Z,42.68
2022-10-13T19:14:28.841Z,41.70
2022-10-13T19:17:01.786Z,41.47
2022-10-13T19:19:31.918Z,41.09
2022-10-13T19:22:01.041Z,40.94
2022-10-13T19:24:30.068Z,40.16
2022-10-13T19:26:59.239Z,40.02
2022-10-13T19:29:28.342Z,39.62
2022-10-13T19:31:57.569Z,39.57
2022-10-13T19:34:26.534Z,39.42
2022-10-13T19:37:00.808Z,38.98
2022-10-13T19:39:30.893Z,38.92
2022-10-13T19:41:59.907Z,38.69
2022-10-13T19:44:28.841Z,38.28
2022-10-13T19:46:57.960Z,38.23
2022-10-13T19:49:27.437Z,37.97
2022-10-13T19:51:57.076Z,37.49
2022-10-13T19:54:31.447Z,37.44
2022-10-13T19:57:03.221Z,37.09
2022-10-13T19:59:32.320Z,36.89
2022-10-13T20:02:01.636Z,36.92
2022-10-13T20:04:30.935Z,36.65
2022-10-13T20:07:00.284Z,35.85
2022-10-13T20:09:30.082Z,35.66
2022-10-13T20:11:59.132Z,35.62
2022-10-13T20:14:28.168Z,35.32
2022-10-13T20:16:59.479Z,35.09
2022-10-13T20:19:28.628Z,35.07
2022-10-13T20:22:02.596Z,35.06
2022-10-13T20:24:31.685Z,34.63
2022-10-13T20:27:00.837Z,34.29
2022-10-13T20:29:30.064Z,34.11
2022-10-13T20:31:59.187Z,33.84
2022-10-13T20:34:30.703Z,33.59
2022-10-13T20:36:59.884Z,33.51
2022-10-13T20:39:29.039Z,33.01
2022-10-13T20:41:57.906Z,32.84
2022-10-13T20:44:29.962Z,32.79
2022-10-13T20:46:59.036Z,32.80
2022-10-13T20:49:28.277Z,32.72
2022-10-13T20:51:58.344Z,32.44
2022-10-13T20:54:27.668Z,31.97
2022-10-13T20:56:58.899Z,31.75
2022-10-13T20:59:28.524Z,31.35
2022-10-13T21:01:57.651Z,31.12
2022-10-13T21:04:27.050Z,30.94
2022-10-13T21:06:56.036Z,30.83
2022-10-13T21:09:24.944Z,31.02
2022-10-13T21:11:54.366Z,30.87
2022-10-13T21:14:23.511Z,30.71
2022-10-13T21:16:52.506Z,30.39
2022-10-13T21:19:22.123Z,30.26
2022-10-13T21:21:51.090Z,30.28
2022-10-13T21:24:20.316Z,30.25
2022-10-13T21:26:49.427Z,30.27
2022-10-13T21:29:18.642Z,30.46
2022-10-13T21:31:47.709Z,30.70
2022-10-13T21:34:17.438Z,30.62
2022-10-13T21:36:46.786Z,30.23
2022-10-13T21:39:16.087Z,30.01
2022-10-13T21:41:45.263Z,30.28
2022-10-13T21:44:17.427Z,30.10
2022-10-13T21:46:46.426Z,30.16
2022-10-13T21:49:16.097Z,29.73
2022-10-13T21:51:45.238Z,29.49
2022-10-13T21:54:16.087Z,29.31
2022-10-13T21:56:45.291Z,28.57
2022-10-13T21:59:15.042Z,28.43
2022-10-13T22:01:44.763Z,27.97
2022-10-13T22:04:16.163Z,27.76
2022-10-13T22:06:46.249Z,27.90
2022-10-13T22:09:15.422Z,27.65
2022-10-13T22:11:45.955Z,27.67
2022-10-13T22:14:15.534Z,27.78
2022-10-13T22:16:51.563Z,27.80
2022-10-13T22:19:25.626Z,27.68
2022-10-13T22:21:54.697Z,27.09
2022-10-13T22:24:23.951Z,27.05
2022-10-13T22:26:53.311Z,27.49
2022-10-13T22:29:24.969Z,27.38
2022-10-13T22:31:59.190Z,27.36
2022-10-13T22:34:29.181Z,26.71
2022-10-13T22:36:58.410Z,26.88
2022-10-13T22:39:28.556Z,27.16
2022-10-13T22:41:57.701Z,27.19
2022-10-13T22:44:26.910Z,26.90
2022-10-13T22:46:55.997Z,27.00
2022-10-13T22:49:24.920Z,27.08
2022-10-13T22:51:54.489Z,26.96
2022-10-13T22:54:23.823Z,26.74
2022-10-13T22:56:53.315Z,26.39
2022-10-13T22:59:22.758Z,26.66
2022-10-13T23:01:51.729Z,26.36
2022-10-13T23:04:20.875Z,26.29
2022-10-13T23:06:49.762Z,26.27
2022-10-13T23:09:18.864Z,26.07
2022-10-13T23:11:48.026Z,26.14
2022-10-13T23:14:17.030Z,25.93
2022-10-13T23:16:46.477Z,25.77
2022-10-13T23:19:16.220Z,25.55
2022-10-13T23:21:45.258Z,25.72
2022-10-13T23:24:16.154Z,25.72
2022-10-13T23:26:45.419Z,25.67
2022-10-13T23:29:15.263Z,25.50
2022-10-13T23:31:44.173Z,25.54
2022-10-13T23:34:13.426Z,25.13
2022-10-13T23:36:42.447Z,25.10
2022-10-13T23:39:13.153Z,24.84
2022-10-13T23:41:42.388Z,24.66
2022-10-13T23:44:11.487Z,24.39
2022-10-13T23:46:40.688Z,24.43
2022-10-13T23:49:14.528Z,24.43
2022-10-13T23:51:46.866Z,24.57
2022-10-13T23:54:16.001Z,24.67
2022-10-13T23:56:45.307Z,24.76
2022-10-13T23:59:14.701Z,24.31
